createdAt,value
2022-10-12T00:01:55.731Z,11.11
2022-10-12T00:04:26.233Z,11.21
2022-10-12T00:06:55.531Z,11.45
2022-10-12T00:09:24.634Z,11.50
2022-10-12T00:11:53.689Z,11.57
2022-10-12T00:14:23.058Z,11.46
2022-10-12T00:16:52.160Z,11.63
2022-10-12T00:19:21.258Z,11.64
2022-10-12T00:21:51.906Z,11.77
2022-10-12T00:24:21.011Z,11.84
2022-10-12T00:26:52.262Z,12.01
2022-10-12T00:29:21.664Z,12.21
2022-10-12T00:31:50.829Z,12.17
2022-10-12T00:34:20.043Z,12.25
2022-10-12T00:36:50.524Z,12.20
2022-10-12T00:39:19.566Z,12.20
2022-10-12T00:41:48.875Z,12.25
2022-10-12T00:44:39.479Z,12.47
2022-10-12T00:47:21.428Z,12.44
2022-10-12T00:49:55.386Z,12.41
2022-10-12T00:52:32.693Z,12.38
2022-10-12T00:55:03.602Z,12.36
2022-10-12T00:57:32.889Z,12.51
2022-10-12T01:00:05.521Z,12.50
2022-10-12T01:02:37.466Z,12.61
2022-10-12T01:05:08.903Z,12.52
2022-10-12T01:07:39.815Z,12.44
2022-10-12T01:10:09.922Z,12.64
2022-10-12T01:12:42.089Z,12.73
2022-10-12T01:15:12.598Z,12.52
2022-10-12T01:17:55.247Z,12.76
2022-10-12T01:20:58.759Z,12.63
2022-10-12T01:24:02.656Z,12.57
2022-10-12T01:26:59.921Z,12.54
2022-10-12T01:30:05.147Z,12.44
2022-10-12T01:32:45.309Z,12.50
2022-10-12T01:35:22.347Z,12.50
2022-10-12T01:37:58.212Z,12.53
2022-10-12T01:40:34.693Z,12.58
2022-10-12T01:43:04.226Z,12.54
2022-10-12T01:45:35.153Z,12.59
2022-10-12T01:48:05.500Z,12.59
2022-10-12T01:50:47.498Z,12.59
2022-10-12T01:53:25.804Z,12.33
2022-10-12T01:55:59.044Z,12.35
2022-10-12T01:58:39.817Z,12.33
2022-10-12T02:01:22.868Z,12.37
2022-10-12T02:04:02.032Z,12.31
2022-10-12T02:06:39.011Z,12.34
2022-10-12T02:09:12.500Z,12.21
2022-10-12T02:11:44.222Z,12.14
2022-10-12T02:14:17.950Z,12.21
2022-10-12T02:16:53.224Z,12.20
2022-10-12T02:19:25.810Z,12.26
2022-10-12T02:21:57.341Z,12.31
2022-10-12T02:24:26.927Z,12.29
2022-10-12T02:26:58.042Z,12.28
2022-10-12T02:29:32.461Z,12.26
2022-10-12T02:37:06.468Z,12.46
2022-10-12T02:39:43.487Z,12.41
2022-10-12T02:42:17.925Z,12.42
2022-10-12T02:44:48.997Z,12.36
2022-10-12T02:47:19.312Z,12.43
2022-10-12T02:49:49.737Z,12.46
2022-10-12T02:52:20.250Z,12.59
2022-10-12T02:54:49.514Z,12.63
2022-10-12T02:57:18.609Z,12.60
2022-10-12T02:59:47.673Z,12.46
2022-10-12T03:02:16.923Z,12.37
2022-10-12T03:04:46.079Z,12.41
2022-10-12T03:07:15.145Z,12.52
2022-10-12T03:09:45.792Z,12.48
2022-10-12T03:12:14.879Z,12.44
2022-10-12T03:14:43.855Z,12.20
2022-10-12T03:17:13.119Z,12.21
2022-10-12T03:19:42.103Z,12.16
2022-10-12T03:22:11.224Z,12.09
2022-10-12T03:24:40.749Z,12.01
2022-10-12T03:27:11.234Z,12.01
2022-10-12T03:29:40.235Z,11.94
2022-10-12T03:32:09.604Z,12.02
2022-10-12T03:34:38.964Z,12.15
2022-10-12T03:37:08.072Z,12.14
2022-10-12T03:39:37.575Z,12.23
2022-10-12T03:42:06.869Z,12.26
2022-10-12T03:44:37.565Z,12.25
2022-10-12T03:47:06.601Z,12.25
2022-10-12T03:49:35.768Z,12.17
2022-10-12T03:52:04.942Z,12.25
2022-10-12T03:54:34.197Z,12.31
2022-10-12T03:57:03.211Z,12.48
2022-10-12T03:59:32.586Z,12.25
2022-10-12T04:02:03.005Z,12.35
2022-10-12T04:04:32.272Z,12.50
2022-10-12T04:07:01.585Z,12.53
2022-10-12T04:09:30.669Z,12.60
2022-10-12T04:12:00.329Z,12.52
2022-10-12T04:14:29.547Z,12.60
2022-10-12T04:16:58.846Z,12.62
2022-10-12T04:19:29.506Z,12.74
2022-10-12T04:21:58.677Z,12.67
2022-10-12T04:24:27.742Z,12.60
2022-10-12T04:26:57.058Z,12.62
2022-10-12T04:29:26.042Z,12.71
2022-10-12T04:31:55.307Z,12.77
2022-10-12T04:34:24.487Z,12.77
2022-10-12T04:36:54.957Z,12.85
2022-10-12T04:39:24.222Z,12.78
2022-10-12T04:41:53.301Z,12.73
2022-10-12T04:44:24.760Z,12.88
2022-10-12T04:46:55.401Z,12.95
2022-10-12T04:49:24.760Z,12.94
2022-10-12T04:51:55.173Z,12.99
2022-10-12T04:54:24.665Z,13.02
2022-10-12T04:56:53.742Z,12.99
2022-10-12T04:59:23.034Z,13.11
2022-10-12T05:01:52.197Z,13.05
2022-10-12T05:04:21.678Z,12.98
2022-10-12T05:06:50.903Z,12.91
2022-10-12T05:09:21.375Z,12.83
2022-10-12T05:11:50.682Z,12.73
2022-10-12T05:14:19.787Z,12.60
2022-10-12T05:16:49.077Z,12.65
2022-10-12T05:19:18.058Z,12.63
2022-10-12T05:21:47.340Z,12.56
2022-10-12T05:24:16.761Z,12.43
2022-10-12T05:26:47.433Z,12.54
2022-10-12T05:29:16.439Z,12.41
2022-10-12T05:31:45.668Z,12.10
2022-10-12T05:34:14.688Z,11.91
2022-10-12T05:36:43.996Z,11.97
2022-10-12T05:39:13.111Z,11.70
2022-10-12T05:41:42.368Z,11.73
2022-10-12T05:44:12.802Z,11.77
2022-10-12T05:46:42.043Z,11.78
2022-10-12T05:49:11.155Z,11.78
2022-10-12T05:51:40.708Z,11.82
2022-10-12T05:54:09.891Z,11.85
2022-10-12T05:56:39.176Z,11.82
2022-10-12T05:59:08.177Z,11.94
2022-10-12T06:01:38.749Z,11.85
2022-10-12T06:04:07.955Z,12.10
2022-10-12T06:06:37.273Z,12.21
2022-10-12T06:09:06.353Z,12.30
2022-10-12T06:11:36.573Z,12.25
2022-10-12T06:14:05.889Z,12.26
2022-10-12T06:16:35.238Z,12.41
2022-10-12T06:19:05.711Z,12.51
2022-10-12T06:21:35.086Z,12.57
2022-10-12T06:24:04.614Z,12.54
2022-10-12T06:26:34.035Z,12.75
2022-10-12T06:29:03.080Z,12.64
2022-10-12T06:31:33.922Z,12.76
2022-10-12T06:34:04.376Z,12.97
2022-10-12T06:36:33.708Z,13.21
2022-10-12T06:39:02.752Z,13.03
2022-10-12T06:41:31.952Z,13.14
2022-10-12T06:44:00.983Z,13.30
2022-10-12T06:46:30.588Z,13.21
2022-10-12T06:48:59.623Z,13.32
2022-10-12T06:51:30.236Z,13.39
2022-10-12T06:54:00.490Z,13.32
2022-10-12T06:56:29.752Z,13.55
2022-10-12T06:58:59.087Z,13.64
2022-10-12T07:01:28.342Z,13.76
2022-10-12T07:04:00.687Z,13.60
2022-10-12T07:06:31.698Z,13.90
2022-10-12T07:09:01.228Z,13.97
2022-10-12T07:11:30.519Z,14.02
2022-10-12T07:13:59.880Z,14.33
2022-10-12T07:16:29.500Z,14.33
2022-10-12T07:18:58.622Z,14.53
2022-10-12T07:21:27.930Z,14.57
2022-10-12T07:23:58.440Z,14.61
2022-10-12T07:26:27.750Z,14.62
2022-10-12T07:28:56.943Z,14.49
2022-10-12T07:31:26.281Z,14.43
2022-10-12T07:33:56.682Z,14.40
2022-10-12T07:36:41.084Z,14.63
2022-10-12T07:39:16.499Z,14.72
2022-10-12T07:41:45.824Z,14.78
2022-10-12T07:44:15.158Z,14.63
2022-10-12T07:46:44.768Z,15.14
2022-10-12T07:49:14.558Z,15.30
2022-10-12T07:51:44.359Z,15.14
2022-10-12T07:54:17.641Z,15.42
2022-10-12T07:56:50.662Z,15.30
2022-10-12T07:59:19.738Z,15.46
2022-10-12T08:01:49.173Z,15.25
2022-10-12T08:04:18.413Z,15.67
2022-10-12T08:06:47.609Z,15.99
2022-10-12T08:09:16.755Z,15.34
2022-10-12T08:11:46.055Z,15.60
2022-10-12T08:14:17.589Z,15.34
2022-10-12T08:16:46.960Z,15.41
2022-10-12T08:19:16.400Z,15.75
2022-10-12T08:21:45.880Z,15.73
2022-10-12T08:24:15.390Z,15.69
2022-10-12T08:26:44.727Z,15.80
2022-10-12T08:29:15.335Z,15.95
2022-10-12T08:31:44.565Z,15.87
2022-10-12T08:34:13.746Z,15.85
2022-10-12T08:36:43.081Z,16.09
2022-10-12T08:39:12.204Z,16.30
2022-10-12T08:41:56.705Z,15.94
2022-10-12T08:44:50.790Z,16.46
2022-10-12T08:47:26.210Z,16.11
2022-10-12T08:49:56.335Z,16.39
2022-10-12T08:52:31.551Z,16.63
2022-10-12T08:55:08.041Z,16.78
2022-10-12T08:57:37.630Z,17.10
2022-10-12T09:00:11.054Z,17.25
2022-10-12T09:02:54.529Z,17.49
2022-10-12T09:05:30.434Z,17.68
2022-10-12T09:08:05.105Z,17.69
2022-10-12T09:10:46.047Z,17.57
2022-10-12T09:13:32.287Z,17.52
2022-10-12T09:16:07.224Z,17.59
2022-10-12T09:18:41.225Z,17.78
2022-10-12T09:21:17.478Z,17.87
2022-10-12T09:23:48.339Z,18.22
2022-10-12T09:26:19.411Z,17.57
2022-10-12T09:28:52.815Z,17.34
2022-10-12T09:31:40.052Z,17.68
2022-10-12T09:34:13.541Z,17.79
2022-10-12T09:36:45.860Z,18.08
2022-10-12T09:39:20.025Z,18.07
2022-10-12T09:41:50.251Z,18.61
2022-10-12T09:44:25.686Z,19.03
2022-10-12T09:46:59.997Z,18.87
2022-10-12T09:49:42.452Z,18.74
2022-10-12T09:52:12.524Z,18.91
2022-10-12T09:54:47.491Z,20.22
2022-10-12T09:57:21.864Z,20.15
2022-10-12T09:59:52.424Z,21.13
2022-10-12T10:02:24.539Z,21.34
2022-10-12T10:04:55.539Z,21.33
2022-10-12T10:07:28.419Z,20.18
2022-10-12T10:10:16.244Z,21.59
2022-10-12T10:12:51.653Z,22.91
2022-10-12T10:15:24.890Z,24.97
2022-10-12T10:17:59.749Z,26.38
2022-10-12T10:20:33.124Z,28.21
2022-10-12T10:23:03.748Z,29.08
2022-10-12T10:25:34.383Z,26.49
2022-10-12T10:28:22.688Z,25.23
2022-10-12T10:31:02.810Z,26.21
2022-10-12T10:33:34.286Z,27.32
2022-10-12T10:36:06.716Z,29.77
2022-10-12T10:38:54.209Z,26.27
2022-10-12T10:41:27.535Z,25.19
2022-10-12T10:43:57.186Z,25.80
2022-10-12T10:46:29.326Z,27.80
2022-10-12T10:49:06.466Z,32.26
2022-10-12T10:51:45.821Z,28.29
2022-10-12T10:54:16.970Z,27.73
2022-10-12T10:56:48.105Z,24.89
2022-10-12T10:59:30.900Z,25.02
2022-10-12T11:02:04.666Z,26.82
2022-10-12T11:04:41.179Z,30.40
2022-10-12T11:07:19.103Z,28.27
2022-10-12T11:09:53.075Z,29.94
2022-10-12T11:12:31.146Z,30.76
2022-10-12T11:15:09.267Z,29.70
2022-10-12T11:17:44.039Z,27.49
2022-10-12T11:20:38.711Z,29.06
2022-10-12T11:23:21.950Z,30.45
2022-10-12T11:26:04.585Z,32.21
2022-10-12T11:28:35.761Z,26.38
2022-10-12T11:31:06.318Z,26.36
2022-10-12T11:33:40.586Z,24.54
2022-10-12T11:36:15.178Z,23.09
2022-10-12T11:38:48.150Z,26.64
2022-10-12T11:41:37.249Z,29.54
2022-10-12T11:44:15.116Z,31.76
2022-10-12T11:46:50.349Z,30.51
2022-10-12T11:49:27.752Z,29.82
2022-10-12T11:52:01.587Z,28.74
2022-10-12T11:54:36.368Z,29.99
2022-10-12T11:57:11.633Z,31.68
2022-10-12T11:59:45.340Z,32.49
2022-10-12T12:02:23.541Z,26.88
2022-10-12T12:04:54.013Z,24.40
2022-10-12T12:07:45.726Z,24.85
2022-10-12T12:11:00.641Z,29.41
2022-10-12T12:13:30.309Z,31.59
2022-10-12T12:16:34.496Z,28.19
2022-10-12T12:19:37.041Z,24.44
2022-10-12T12:22:28.796Z,23.18
2022-10-12T12:25:05.686Z,21.38
2022-10-12T12:27:38.879Z,20.53
2022-10-12T12:30:33.857Z,19.90
2022-10-12T12:33:05.918Z,20.42
2022-10-12T12:35:39.865Z,20.39
2022-10-12T12:38:19.984Z,20.36
2022-10-12T12:41:12.522Z,20.03
2022-10-12T12:44:03.311Z,19.57
2022-10-12T12:47:44.589Z,19.10
2022-10-12T12:50:35.089Z,18.94
2022-10-12T12:53:08.035Z,18.43
2022-10-12T12:56:03.878Z,18.62
2022-10-12T12:58:58.176Z,18.60
2022-10-12T13:01:47.737Z,18.37
2022-10-12T13:04:44.215Z,18.64
2022-10-12T13:07:39.794Z,19.04
2022-10-12T13:10:28.501Z,19.38
2022-10-12T13:13:26.938Z,19.83
2022-10-12T13:16:07.799Z,20.52
2022-10-12T13:18:52.508Z,28.03
2022-10-12T13:21:25.425Z,26.42
2022-10-12T13:24:04.424Z,30.48
2022-10-12T13:26:37.011Z,33.32
2022-10-12T13:29:17.879Z,33.50
2022-10-12T13:31:49.710Z,34.18
2022-10-12T13:34:22.480Z,29.76
2022-10-12T13:36:59.481Z,26.10
2022-10-12T13:39:30.003Z,23.39
2022-10-12T13:42:02.322Z,22.70
2022-10-12T13:44:35.679Z,22.17
2022-10-12T13:47:22.492Z,21.94
2022-10-12T13:49:51.908Z,21.00
2022-10-12T13:52:30.941Z,20.77
2022-10-12T13:55:02.174Z,20.04
2022-10-12T13:57:36.489Z,20.43
2022-10-12T14:00:19.011Z,19.60
2022-10-12T14:02:56.801Z,20.26
2022-10-12T14:05:27.646Z,20.30
2022-10-12T14:08:01.891Z,20.51
2022-10-12T14:10:34.220Z,19.97
2022-10-12T14:13:05.023Z,19.14
2022-10-12T14:15:38.080Z,19.22
2022-10-12T14:18:38.407Z,19.10
2022-10-12T14:21:23.662Z,18.77
2022-10-12T14:23:55.060Z,18.76
2022-10-12T14:26:30.699Z,19.33
2022-10-12T14:29:01.173Z,18.99
2022-10-12T14:31:53.006Z,18.78
2022-10-12T14:34:41.897Z,18.77
2022-10-12T14:37:30.780Z,18.82
2022-10-12T14:40:04.073Z,18.84
2022-10-12T14:42:35.619Z,18.45
2022-10-12T14:45:07.822Z,18.60
2022-10-12T14:47:41.835Z,18.79
2022-10-12T14:50:17.739Z,18.87
2022-10-12T14:52:49.038Z,18.82
2022-10-12T14:55:20.171Z,18.77
2022-10-12T14:57:49.883Z,19.43
2022-10-12T15:00:20.794Z,19.47
2022-10-12T15:02:51.940Z,19.08
2022-10-12T15:05:23.262Z,18.96
2022-10-12T15:07:52.966Z,18.72
2022-10-12T15:10:23.979Z,18.54
2022-10-12T15:12:54.485Z,19.41
2022-10-12T15:15:32.427Z,21.05
2022-10-12T15:18:03.543Z,22.44
2022-10-12T15:20:34.054Z,22.40
2022-10-12T15:23:03.922Z,21.96
2022-10-12T15:25:42.815Z,21.32
2022-10-12T15:28:12.066Z,20.15
2022-10-12T15:30:58.060Z,19.38
2022-10-12T15:33:32.415Z,18.93
2022-10-12T15:36:01.383Z,18.59
2022-10-12T15:38:30.549Z,18.25
2022-10-12T15:40:59.705Z,18.20
2022-10-12T15:43:29.780Z,17.88
2022-10-12T15:46:00.899Z,17.71
2022-10-12T15:48:31.635Z,17.33
2022-10-12T15:51:00.734Z,17.23
2022-10-12T15:53:30.101Z,17.18
2022-10-12T15:55:59.199Z,17.20
2022-10-12T15:58:28.677Z,17.21
2022-10-12T16:00:57.987Z,16.95
2022-10-12T16:03:31.225Z,16.73
2022-10-12T16:06:01.795Z,16.75
2022-10-12T16:08:31.029Z,16.57
2022-10-12T16:11:00.220Z,16.44
2022-10-12T16:13:29.447Z,16.42
2022-10-12T16:15:58.587Z,16.26
2022-10-12T16:18:27.821Z,16.32
2022-10-12T16:20:57.073Z,16.24
2022-10-12T16:23:29.594Z,16.26
2022-10-12T16:25:59.909Z,16.22
2022-10-12T16:28:30.442Z,16.13
2022-10-12T16:30:59.898Z,15.97
2022-10-12T16:33:28.885Z,15.94
2022-10-12T16:35:58.266Z,15.90
2022-10-12T16:38:28.798Z,15.79
2022-10-12T16:40:58.059Z,15.78
2022-10-12T16:43:27.157Z,15.50
2022-10-12T16:45:59.187Z,15.53
2022-10-12T16:48:28.492Z,15.44
2022-10-12T16:50:57.830Z,15.26
2022-10-12T16:53:28.514Z,15.40
2022-10-12T16:55:57.905Z,15.37
2022-10-12T16:58:27.081Z,15.30
2022-10-12T17:00:56.625Z,15.07
2022-10-12T17:03:25.784Z,15.02
2022-10-12T17:06:00.407Z,15.07
2022-10-12T17:08:34.857Z,15.03
2022-10-12T17:11:08.295Z,14.75
2022-10-12T17:13:38.283Z,14.73
2022-10-12T17:16:34.892Z,14.55
2022-10-12T17:19:04.640Z,14.44
2022-10-12T17:21:34.169Z,14.47
2022-10-12T17:24:04.763Z,14.53
2022-10-12T17:26:38.576Z,14.51
2022-10-12T17:29:11.731Z,14.28
2022-10-12T17:31:41.812Z,14.23
2022-10-12T17:34:17.626Z,14.21
2022-10-12T17:36:47.572Z,14.08
2022-10-12T17:39:21.790Z,13.86
2022-10-12T17:41:51.508Z,13.84
2022-10-12T17:44:20.908Z,13.82
2022-10-12T17:46:50.690Z,13.75
2022-10-12T17:49:24.966Z,13.60
2022-10-12T17:51:54.597Z,13.46
2022-10-12T17:54:26.740Z,13.42
2022-10-12T17:56:57.234Z,13.18
2022-10-12T17:59:27.033Z,13.17
2022-10-12T18:01:56.405Z,12.98
2022-10-12T18:04:25.895Z,12.96
2022-10-12T18:06:55.060Z,12.88
2022-10-12T18:09:25.596Z,12.77
2022-10-12T18:11:55.036Z,12.51
2022-10-12T18:14:24.174Z,12.51
2022-10-12T18:16:54.405Z,12.40
2022-10-12T18:19:23.798Z,12.38
2022-10-12T18:21:52.942Z,12.47
2022-10-12T18:24:23.306Z,12.49
2022-10-12T18:26:54.178Z,12.38
2022-10-12T18:29:23.992Z,12.29
2022-10-12T18:31:53.547Z,12.16
2022-10-12T18:34:22.981Z,11.96
2022-10-12T18:36:52.796Z,11.93
2022-10-12T18:39:22.295Z,11.87
2022-10-12T18:41:53.067Z,11.79
2022-10-12T18:44:22.333Z,11.85
2022-10-12T18:46:51.614Z,11.94
2022-10-12T18:49:20.885Z,11.77
2022-10-12T18:51:51.382Z,11.57
2022-10-12T18:54:20.773Z,11.56
2022-10-12T18:56:50.020Z,11.45
2022-10-12T18:59:20.733Z,11.42
2022-10-12T19:01:49.837Z,11.39
2022-10-12T19:04:19.188Z,11.34
2022-10-12T19:06:48.398Z,11.36
2022-10-12T19:09:17.439Z,11.27
2022-10-12T19:11:47.188Z,11.13
2022-10-12T19:14:17.578Z,11.11
2022-10-12T19:16:51.190Z,11.10
2022-10-12T19:19:21.555Z,11.07
2022-10-12T19:21:51.903Z,11.11
2022-10-12T19:24:22.032Z,10.92
2022-10-12T19:26:51.499Z,10.99
2022-10-12T19:29:20.841Z,10.92
2022-10-12T19:31:52.364Z,11.00
2022-10-12T19:34:23.807Z,11.10
2022-10-12T19:36:53.288Z,11.14
2022-10-12T19:39:24.178Z,11.01
2022-10-12T19:41:53.740Z,10.77
2022-10-12T19:44:23.163Z,10.86
2022-10-12T19:46:53.815Z,11.01
2022-10-12T19:49:23.154Z,11.10
2022-10-12T19:51:52.294Z,11.02
2022-10-12T19:54:21.716Z,10.93
2022-10-12T19:56:51.654Z,10.85
2022-10-12T19:59:20.924Z,10.97
2022-10-12T20:01:50.714Z,10.91
2022-10-12T20:04:21.443Z,10.92
2022-10-12T20:06:50.701Z,10.98
2022-10-12T20:09:19.894Z,10.85
2022-10-12T20:11:49.159Z,10.78
2022-10-12T20:14:18.105Z,10.58
2022-10-12T20:16:47.295Z,10.66
2022-10-12T20:19:16.574Z,10.62
2022-10-12T20:21:46.976Z,10.72
2022-10-12T20:24:15.958Z,10.74
2022-10-12T20:26:45.383Z,10.88
2022-10-12T20:29:14.476Z,10.81
2022-10-12T20:31:44.816Z,10.91
2022-10-12T20:34:13.983Z,10.94
2022-10-12T20:36:43.073Z,11.05
2022-10-12T20:39:14.544Z,11.00
2022-10-12T20:41:43.656Z,11.00
2022-10-12T20:44:13.016Z,10.80
2022-10-12T20:46:44.463Z,10.79
2022-10-12T20:49:13.767Z,10.75
2022-10-12T20:51:44.790Z,10.92
2022-10-12T20:54:18.800Z,10.82
2022-10-12T20:56:51.932Z,10.87
2022-10-12T20:59:21.329Z,10.77
2022-10-12T21:01:50.546Z,10.69
2022-10-12T21:04:19.649Z,10.70
2022-10-12T21:06:49.087Z,10.76
2022-10-12T21:09:19.659Z,10.70
2022-10-12T21:11:48.718Z,10.86
2022-10-12T21:14:18.079Z,10.97
2022-10-12T21:16:47.587Z,11.00
2022-10-12T21:19:17.348Z,11.02
2022-10-12T21:21:47.561Z,11.05
2022-10-12T21:24:18.754Z,11.02
2022-10-12T21:26:48.062Z,11.27
2022-10-12T21:29:17.054Z,11.35
2022-10-12T21:31:46.419Z,11.42
2022-10-12T21:34:15.790Z,11.42
2022-10-12T21:36:44.874Z,11.48
2022-10-12T21:39:15.956Z,11.41
2022-10-12T21:41:46.674Z,11.33
2022-10-12T21:44:15.783Z,11.25
2022-10-12T21:46:44.890Z,11.23
2022-10-12T21:49:14.344Z,11.21
2022-10-12T21:51:43.377Z,11.28
2022-10-12T21:54:14.334Z,11.41
2022-10-12T21:56:45.226Z,11.58
2022-10-12T21:59:14.355Z,11.58
2022-10-12T22:01:43.924Z,11.26
2022-10-12T22:04:15.918Z,11.45
2022-10-12T22:06:45.136Z,11.26
2022-10-12T22:09:16.828Z,11.56
2022-10-12T22:11:47.906Z,11.69
2022-10-12T22:14:19.600Z,11.69
2022-10-12T22:16:48.765Z,11.70
2022-10-12T22:19:19.716Z,11.88
2022-10-12T22:21:51.074Z,11.82
2022-10-12T22:24:22.044Z,11.94
2022-10-12T22:26:52.614Z,12.05
2022-10-12T22:29:22.039Z,12.07
2022-10-12T22:31:51.394Z,12.06
2022-10-12T22:34:20.450Z,12.06
2022-10-12T22:36:49.558Z,12.13
2022-10-12T22:39:26.584Z,12.18
2022-10-12T22:41:57.011Z,12.09
2022-10-12T22:44:26.057Z,11.89
2022-10-12T22:46:56.547Z,11.73
2022-10-12T22:49:25.638Z,11.70
2022-10-12T22:51:54.842Z,11.54
2022-10-12T22:54:24.087Z,11.59
2022-10-12T22:56:53.440Z,11.68
2022-10-12T22:59:24.163Z,11.93
2022-10-12T23:01:53.427Z,11.87
2022-10-12T23:04:24.603Z,11.94
2022-10-12T23:06:53.664Z,12.13
2022-10-12T23:09:23.918Z,12.13
2022-10-12T23:11:54.148Z,12.24
2022-10-12T23:14:24.768Z,12.16
2022-10-12T23:16:54.116Z,12.17
2022-10-12T23:19:23.983Z,12.08
2022-10-12T23:21:53.080Z,12.35
2022-10-12T23:24:22.469Z,12.29
2022-10-12T23:26:51.547Z,12.49
2022-10-12T23:29:20.767Z,12.43
2022-10-12T23:31:51.353Z,12.31
2022-10-12T23:34:20.387Z,12.33
2022-10-12T23:36:49.858Z,12.18
2022-10-12T23:39:19.084Z,12.32
2022-10-12T23:41:48.189Z,12.33
2022-10-12T23:44:17.726Z,12.31
2022-10-12T23:46:47.070Z,12.26
2022-10-12T23:49:17.522Z,12.35
2022-10-12T23:51:46.606Z,12.43
2022-10-12T23:54:15.860Z,12.33
2022-10-12T23:56:45.005Z,12.46
2022-10-12T23:59:14.091Z,12.32
